createdAt,value
2022-10-13T00:00:28.746Z,9.279931
2022-10-13T00:01:28.801Z,9.279947
2022-10-13T00:02:28.706Z,9.279922
2022-10-13T00:03:28.690Z,9.279933
2022-10-13T00:04:28.672Z,9.279933
2022-10-13T00:05:28.654Z,9.279956
2022-10-13T00:06:28.662Z,9.279922
2022-10-13T00:07:28.617Z,9.279916
2022-10-13T00:08:28.602Z,9.279903
2022-10-13T00:09:28.581Z,9.279913
2022-10-13T00:10:28.564Z,9.279898
2022-10-13T00:11:28.577Z,9.279919
2022-10-13T00:12:28.531Z,9.279924
2022-10-13T00:13:28.511Z,9.279904
2022-10-13T00:14:28.490Z,9.279971
2022-10-13T00:15:28.472Z,9.279964
2022-10-13T00:16:28.484Z,9.279969
2022-10-13T00:17:28.435Z,9.279935
2022-10-13T00:18:28.419Z,9.279968
2022-10-13T00:19:28.399Z,9.279973
2022-10-13T00:20:28.384Z,9.279979
2022-10-13T00:21:28.390Z,9.280043
2022-10-13T00:22:28.350Z,9.280012
2022-10-13T00:23:28.327Z,9.279959
2022-10-13T00:24:28.312Z,9.279924
2022-10-13T00:25:28.294Z,9.279941
2022-10-13T00:26:28.303Z,9.279985
2022-10-13T00:27:28.261Z,9.279984
2022-10-13T00:28:28.249Z,9.280019
2022-10-13T00:29:28.226Z,9.279988
2022-10-13T00:30:28.211Z,9.280053
2022-10-13T00:31:28.212Z,9.279969
2022-10-13T00:32:28.169Z,9.279980
2022-10-13T00:33:28.153Z,9.280010
2022-10-13T00:34:28.137Z,9.279997
2022-10-13T00:35:28.114Z,9.279985
2022-10-13T00:36:28.123Z,9.280021
2022-10-13T00:37:28.077Z,9.280062
2022-10-13T00:38:28.060Z,9.280034
2022-10-13T00:39:28.041Z,9.279983
2022-10-13T00:40:28.024Z,9.279993
2022-10-13T00:41:28.030Z,9.280041
2022-10-13T00:42:27.989Z,9.280047
2022-10-13T00:43:27.969Z,9.280069
2022-10-13T00:44:27.950Z,9.280116
2022-10-13T00:45:27.940Z,9.280089
2022-10-13T00:46:27.943Z,9.280098
2022-10-13T00:47:27.903Z,9.280138
2022-10-13T00:48:27.885Z,9.280063
2022-10-13T00:49:27.867Z,9.280110
2022-10-13T00:50:27.870Z,9.280038
2022-10-13T00:51:27.861Z,9.280065
2022-10-13T00:52:27.817Z,9.279945
2022-10-13T00:53:27.797Z,9.279963
2022-10-13T00:54:27.780Z,9.280007
2022-10-13T00:55:27.761Z,9.279917
2022-10-13T00:56:27.779Z,9.279994
2022-10-13T00:57:27.727Z,9.280023
2022-10-13T00:58:27.711Z,9.279999
2022-10-13T00:59:27.692Z,9.280011
2022-10-13T01:00:27.730Z,9.280025
2022-10-13T01:01:27.679Z,9.279838
2022-10-13T01:02:27.632Z,9.279980
2022-10-13T01:03:27.613Z,9.279944
2022-10-13T01:04:27.596Z,9.279952
2022-10-13T01:05:27.574Z,9.279914
2022-10-13T01:06:27.593Z,9.279965
2022-10-13T01:07:27.544Z,9.280066
2022-10-13T01:08:27.530Z,9.279967
2022-10-13T01:09:27.511Z,9.280007
2022-10-13T01:10:27.495Z,9.279977
2022-10-13T01:11:27.508Z,9.279950
2022-10-13T01:12:27.464Z,9.279940
2022-10-13T01:13:27.442Z,9.280041
2022-10-13T01:14:27.425Z,9.279961
2022-10-13T01:15:27.409Z,9.279921
2022-10-13T01:16:27.418Z,9.280001
2022-10-13T01:17:27.376Z,9.280039
2022-10-13T01:18:27.355Z,9.279954
2022-10-13T01:19:27.340Z,9.279999
2022-10-13T01:20:27.323Z,9.280061
2022-10-13T01:21:27.332Z,9.280057
2022-10-13T01:22:27.283Z,9.280106
2022-10-13T01:23:27.268Z,9.279992
2022-10-13T01:24:27.247Z,9.279916
2022-10-13T01:25:27.231Z,9.279998
2022-10-13T01:26:27.243Z,9.280018
2022-10-13T01:27:27.205Z,9.280012
2022-10-13T01:28:27.230Z,9.279909
2022-10-13T01:29:27.162Z,9.279876
2022-10-13T01:30:27.144Z,9.279883
2022-10-13T01:31:27.160Z,9.279955
2022-10-13T01:32:27.111Z,9.279902
2022-10-13T01:33:27.100Z,9.279952
2022-10-13T01:34:27.080Z,9.279911
2022-10-13T01:35:27.058Z,9.279918
2022-10-13T01:36:27.071Z,9.279889
2022-10-13T01:37:27.025Z,9.280142
2022-10-13T01:38:27.013Z,9.280132
2022-10-13T01:39:26.989Z,9.279902
2022-10-13T01:40:26.975Z,9.279906
2022-10-13T01:41:26.985Z,9.279915
2022-10-13T01:42:26.945Z,9.279875
2022-10-13T01:43:26.922Z,9.279982
2022-10-13T01:44:26.905Z,9.279860
2022-10-13T01:45:26.890Z,9.279834
2022-10-13T01:46:26.898Z,9.279767
2022-10-13T01:47:26.853Z,9.279737
2022-10-13T01:48:26.839Z,9.279896
2022-10-13T01:49:26.819Z,9.279896
2022-10-13T01:50:26.802Z,9.279904
2022-10-13T01:51:26.813Z,9.279989
2022-10-13T01:52:26.768Z,9.279729
2022-10-13T01:53:26.748Z,9.279821
2022-10-13T01:54:26.731Z,9.280053
2022-10-13T01:55:26.723Z,9.279986
2022-10-13T01:56:26.724Z,9.279947
2022-10-13T01:57:26.686Z,9.280063
2022-10-13T01:58:26.668Z,9.279997
2022-10-13T01:59:26.653Z,9.280001
2022-10-13T02:00:26.668Z,9.279897
2022-10-13T02:01:26.641Z,9.279889
2022-10-13T02:02:26.596Z,9.279924
2022-10-13T02:03:26.580Z,9.279991
2022-10-13T02:04:26.564Z,9.279952
2022-10-13T02:05:26.542Z,9.279961
2022-10-13T02:06:26.558Z,9.279889
2022-10-13T02:07:26.508Z,9.279933
2022-10-13T02:08:26.491Z,9.279951
2022-10-13T02:09:26.478Z,9.279909
2022-10-13T02:10:26.463Z,9.279891
2022-10-13T02:11:26.472Z,9.279926
2022-10-13T02:12:26.427Z,9.280039
2022-10-13T02:13:26.405Z,9.280118
2022-10-13T02:14:26.405Z,9.279910
2022-10-13T02:15:26.370Z,9.279811
2022-10-13T02:16:26.384Z,9.280116
2022-10-13T02:17:26.342Z,9.280022
2022-10-13T02:18:26.317Z,9.280034
2022-10-13T02:19:26.304Z,9.279995
2022-10-13T02:20:26.287Z,9.279941
2022-10-13T02:21:26.297Z,9.279883
2022-10-13T02:22:26.282Z,9.279924
2022-10-13T02:23:26.233Z,9.279979
2022-10-13T02:24:26.214Z,9.279989
2022-10-13T02:25:26.195Z,9.279934
2022-10-13T02:26:26.175Z,9.280009
2022-10-13T02:27:26.185Z,9.280047
2022-10-13T02:28:26.178Z,9.280045
2022-10-13T02:29:26.122Z,9.279959
2022-10-13T02:30:26.107Z,9.280070
2022-10-13T02:31:26.116Z,9.280030
2022-10-13T02:32:26.066Z,9.280023
2022-10-13T02:33:26.050Z,9.279998
2022-10-13T02:34:26.032Z,9.280026
2022-10-13T02:35:26.016Z,9.280056
2022-10-13T02:36:26.026Z,9.280029
2022-10-13T02:37:25.984Z,9.280006
2022-10-13T02:38:25.966Z,9.279999
2022-10-13T02:39:25.946Z,9.280019
2022-10-13T02:40:25.928Z,9.280033
2022-10-13T02:41:25.933Z,9.280017
2022-10-13T02:42:25.891Z,9.280077
2022-10-13T02:43:25.874Z,9.280052
2022-10-13T02:44:25.860Z,9.280015
2022-10-13T02:45:25.840Z,9.280012
2022-10-13T02:46:25.848Z,9.279948
2022-10-13T02:47:25.801Z,9.280011
2022-10-13T02:48:25.794Z,9.279967
2022-10-13T02:49:25.766Z,9.279963
2022-10-13T02:50:25.755Z,9.279956
2022-10-13T02:51:25.762Z,9.279987
2022-10-13T02:52:25.717Z,9.279963
2022-10-13T02:53:25.713Z,9.280038
2022-10-13T02:54:25.680Z,9.280033
2022-10-13T02:55:25.657Z,9.279971
2022-10-13T02:56:25.668Z,9.280038
2022-10-13T02:57:25.621Z,9.280076
2022-10-13T02:58:25.605Z,9.280025
2022-10-13T02:59:25.587Z,9.280136
2022-10-13T03:00:25.577Z,9.279973
2022-10-13T03:01:25.576Z,9.279876
2022-10-13T03:02:25.534Z,9.279946
2022-10-13T03:03:25.515Z,9.279983
2022-10-13T03:04:25.495Z,9.279889
2022-10-13T03:05:25.473Z,9.279847
2022-10-13T03:06:25.483Z,9.279833
2022-10-13T03:07:25.445Z,9.279962
2022-10-13T03:08:25.425Z,9.279893
2022-10-13T03:09:25.408Z,9.279938
2022-10-13T03:10:25.390Z,9.279988
2022-10-13T03:11:25.397Z,9.279993
2022-10-13T03:12:25.356Z,9.280064
2022-10-13T03:13:25.370Z,9.280109
2022-10-13T03:14:25.317Z,9.279860
2022-10-13T03:15:25.302Z,9.279833
2022-10-13T03:16:25.310Z,9.279889
2022-10-13T03:17:25.268Z,9.279821
2022-10-13T03:18:25.249Z,9.279826
2022-10-13T03:19:25.233Z,9.279958
2022-10-13T03:20:25.215Z,9.279930
2022-10-13T03:21:25.227Z,9.279696
2022-10-13T03:22:25.181Z,9.279801
2022-10-13T03:23:25.168Z,9.279834
2022-10-13T03:24:25.146Z,9.279730
2022-10-13T03:25:25.134Z,9.279802
2022-10-13T03:26:25.136Z,9.279909
2022-10-13T03:27:25.187Z,9.279930
2022-10-13T03:28:25.226Z,9.279936
2022-10-13T03:29:25.058Z,9.280006
2022-10-13T03:30:25.042Z,9.279982
2022-10-13T03:31:25.062Z,9.280002
2022-10-13T03:32:25.007Z,9.279904
2022-10-13T03:33:24.990Z,9.279788
2022-10-13T03:34:24.975Z,9.279770
2022-10-13T03:35:24.955Z,9.279791
2022-10-13T03:36:24.972Z,9.279909
2022-10-13T03:37:24.921Z,9.279954
2022-10-13T03:38:24.930Z,9.279883
2022-10-13T03:39:24.890Z,9.279901
2022-10-13T03:40:24.864Z,9.279921
2022-10-13T03:41:24.877Z,9.279851
2022-10-13T03:42:24.833Z,9.279799
2022-10-13T03:43:24.814Z,9.279807
2022-10-13T03:44:24.797Z,9.279940
2022-10-13T03:45:24.783Z,9.280032
2022-10-13T03:46:24.789Z,9.280023
2022-10-13T03:47:24.744Z,9.280002
2022-10-13T03:48:24.727Z,9.279955
2022-10-13T03:49:24.712Z,9.279849
2022-10-13T03:50:24.692Z,9.279840
2022-10-13T03:51:24.709Z,9.279773
2022-10-13T03:52:24.661Z,9.279801
2022-10-13T03:53:24.645Z,9.279828
2022-10-13T03:54:24.625Z,9.279954
2022-10-13T03:55:24.625Z,9.279989
2022-10-13T03:56:24.615Z,9.280023
2022-10-13T03:57:24.596Z,9.279976
2022-10-13T03:58:24.551Z,9.279865
2022-10-13T03:59:24.544Z,9.279973
2022-10-13T04:00:24.536Z,9.279980
2022-10-13T04:01:24.566Z,9.279967
2022-10-13T04:02:24.489Z,9.279899
2022-10-13T04:03:24.466Z,9.279864
2022-10-13T04:04:24.453Z,9.279955
2022-10-13T04:05:24.432Z,9.279758
2022-10-13T04:06:24.442Z,9.279834
2022-10-13T04:07:24.400Z,9.279974
2022-10-13T04:08:24.381Z,9.279944
2022-10-13T04:09:24.364Z,9.279973
2022-10-13T04:10:24.351Z,9.279964
2022-10-13T04:11:24.357Z,9.279970
2022-10-13T04:12:24.486Z,9.279926
2022-10-13T04:13:24.295Z,9.279856
2022-10-13T04:14:24.276Z,9.279894
2022-10-13T04:15:24.261Z,9.279864
2022-10-13T04:16:24.267Z,9.279871
2022-10-13T04:17:24.222Z,9.279857
2022-10-13T04:18:24.209Z,9.279925
2022-10-13T04:19:24.201Z,9.279911
2022-10-13T04:20:24.174Z,9.279928
2022-10-13T04:21:24.183Z,9.279931
2022-10-13T04:22:24.144Z,9.279888
2022-10-13T04:23:24.155Z,9.279918
2022-10-13T04:24:24.109Z,9.279887
2022-10-13T04:25:24.086Z,9.279831
2022-10-13T04:26:24.093Z,9.279872
2022-10-13T04:27:24.051Z,9.279729
2022-10-13T04:28:24.095Z,9.279912
2022-10-13T04:29:24.019Z,9.280003
2022-10-13T04:30:23.999Z,9.279976
2022-10-13T04:31:24.015Z,9.279892
2022-10-13T04:32:23.968Z,9.280005
2022-10-13T04:33:23.945Z,9.279902
2022-10-13T04:34:23.931Z,9.279910
2022-10-13T04:35:23.913Z,9.279958
2022-10-13T04:36:23.939Z,9.279894
2022-10-13T04:37:23.882Z,9.279802
2022-10-13T04:38:23.856Z,9.279894
2022-10-13T04:39:23.839Z,9.279777
2022-10-13T04:40:23.831Z,9.279737
2022-10-13T04:41:23.838Z,9.279956
2022-10-13T04:42:23.790Z,9.279784
2022-10-13T04:43:23.771Z,9.279810
2022-10-13T04:44:23.746Z,9.279962
2022-10-13T04:45:23.730Z,9.279899
2022-10-13T04:46:23.736Z,9.279965
2022-10-13T04:47:23.692Z,9.280000
2022-10-13T04:48:23.668Z,9.279898
2022-10-13T04:49:23.653Z,9.279756
2022-10-13T04:50:23.636Z,9.279874
2022-10-13T04:51:23.650Z,9.279816
2022-10-13T04:52:23.604Z,9.279817
2022-10-13T04:53:23.589Z,9.279856
2022-10-13T04:54:23.563Z,9.279896
2022-10-13T04:55:23.549Z,9.279859
2022-10-13T04:56:23.560Z,9.279811
2022-10-13T04:57:23.519Z,9.279856
2022-10-13T04:58:23.494Z,9.279889
2022-10-13T04:59:23.479Z,9.279920
2022-10-13T05:00:23.500Z,9.279899
2022-10-13T05:01:23.440Z,9.279880
2022-10-13T05:02:23.451Z,9.279919
2022-10-13T05:03:23.433Z,9.279880
2022-10-13T05:04:23.391Z,9.279865
2022-10-13T05:05:23.366Z,9.279964
2022-10-13T05:06:23.347Z,9.279906
2022-10-13T05:07:23.327Z,9.280126
2022-10-13T05:08:23.338Z,9.280015
2022-10-13T05:09:23.290Z,9.279980
2022-10-13T05:10:23.285Z,9.279904
2022-10-13T05:11:23.261Z,9.279861
2022-10-13T05:12:23.462Z,9.279905
2022-10-13T05:13:23.713Z,9.279881
2022-10-13T05:14:23.191Z,9.279903
2022-10-13T05:15:23.172Z,9.279816
2022-10-13T05:16:23.159Z,9.279939
2022-10-13T05:17:23.168Z,9.279906
2022-10-13T05:18:23.119Z,9.279868
2022-10-13T05:19:23.109Z,9.279951
2022-10-13T05:20:23.083Z,9.279918
2022-10-13T05:21:23.105Z,9.280061
2022-10-13T05:22:23.196Z,9.279986
2022-10-13T05:23:23.018Z,9.279972
2022-10-13T05:24:24.027Z,9.280023
2022-10-13T05:25:22.989Z,9.280096
2022-10-13T05:26:23.001Z,9.279990
2022-10-13T05:27:22.955Z,9.279901
2022-10-13T05:28:22.955Z,9.279814
2022-10-13T05:29:22.919Z,9.279958
2022-10-13T05:30:22.900Z,9.279986
2022-10-13T05:31:22.907Z,9.279928
2022-10-13T05:32:23.080Z,9.279997
2022-10-13T05:33:22.846Z,9.279952
2022-10-13T05:34:22.831Z,9.279896
2022-10-13T05:35:22.897Z,9.279839
2022-10-13T05:36:22.818Z,9.279889
2022-10-13T05:37:22.773Z,9.279770
2022-10-13T05:38:26.079Z,9.279844
2022-10-13T05:39:23.740Z,9.279929
2022-10-13T05:40:22.717Z,9.279912
2022-10-13T05:41:22.729Z,9.279861
2022-10-13T05:42:23.149Z,9.279838
2022-10-13T05:43:22.669Z,9.279863
2022-10-13T05:44:22.646Z,9.279879
2022-10-13T05:45:22.634Z,9.279843
2022-10-13T05:46:22.640Z,9.279932
2022-10-13T05:47:22.604Z,9.279881
2022-10-13T05:48:22.579Z,9.279943
2022-10-13T05:49:22.560Z,9.279878
2022-10-13T05:50:22.553Z,9.279813
2022-10-13T05:51:22.559Z,9.279788
2022-10-13T05:52:22.733Z,9.279846
2022-10-13T05:53:22.486Z,9.279962
2022-10-13T05:54:22.472Z,9.279961
2022-10-13T05:55:22.449Z,9.279924
2022-10-13T05:56:22.470Z,9.279941
2022-10-13T05:57:22.416Z,9.279865
2022-10-13T05:58:22.404Z,9.279778
2022-10-13T05:59:26.732Z,9.279777
2022-10-13T06:00:23.367Z,9.279841
2022-10-13T06:01:22.476Z,9.279953
2022-10-13T06:02:22.737Z,9.279894
2022-10-13T06:03:22.334Z,9.279958
2022-10-13T06:04:22.295Z,9.280001
2022-10-13T06:05:22.279Z,9.279908
2022-10-13T06:06:22.258Z,9.279880
2022-10-13T06:07:22.267Z,9.279881
2022-10-13T06:08:22.223Z,9.279845
2022-10-13T06:09:22.206Z,9.279792
2022-10-13T06:10:22.202Z,9.279776
2022-10-13T06:11:22.173Z,9.279753
2022-10-13T06:12:22.566Z,9.279835
2022-10-13T06:13:22.142Z,9.279871
2022-10-13T06:14:22.119Z,9.279846
2022-10-13T06:15:27.124Z,9.279889
2022-10-13T06:16:24.085Z,9.279862
2022-10-13T06:17:22.096Z,9.279873
2022-10-13T06:18:22.060Z,9.279897
2022-10-13T06:19:22.036Z,9.279985
2022-10-13T06:20:22.017Z,9.280007
2022-10-13T06:21:22.004Z,9.279929
2022-10-13T06:22:22.510Z,9.279914
2022-10-13T06:23:21.962Z,9.280068
2022-10-13T06:24:21.950Z,9.280035
2022-10-13T06:25:21.929Z,9.279974
2022-10-13T06:26:21.911Z,9.279911
2022-10-13T06:27:21.926Z,9.279979
2022-10-13T06:28:21.903Z,9.279980
2022-10-13T06:29:21.861Z,9.280040
2022-10-13T06:30:21.842Z,9.279963
2022-10-13T06:31:21.822Z,9.279899
2022-10-13T06:32:22.391Z,9.280062
2022-10-13T06:33:21.817Z,9.280168
2022-10-13T06:34:21.773Z,9.280204
2022-10-13T06:35:21.758Z,9.280024
2022-10-13T06:36:21.736Z,9.279985
2022-10-13T06:37:26.919Z,9.279842
2022-10-13T06:38:23.734Z,9.279922
2022-10-13T06:39:21.685Z,9.279899
2022-10-13T06:40:21.669Z,9.279753
2022-10-13T06:41:21.648Z,9.279823
2022-10-13T06:42:22.053Z,9.280004
2022-10-13T06:43:21.641Z,9.279910
2022-10-13T06:44:21.621Z,9.279852
2022-10-13T06:45:21.579Z,9.279978
2022-10-13T06:46:21.565Z,9.280044
2022-10-13T06:47:21.575Z,9.280104
2022-10-13T06:48:21.531Z,9.279914
2022-10-13T06:49:21.517Z,9.280049
2022-10-13T06:50:21.492Z,9.279902
2022-10-13T06:51:21.478Z,9.279945
2022-10-13T06:52:21.853Z,9.280013
2022-10-13T06:53:21.441Z,9.279935
2022-10-13T06:54:21.426Z,9.279902
2022-10-13T06:55:21.403Z,9.279961
2022-10-13T06:56:21.386Z,9.279947
2022-10-13T06:57:21.395Z,9.279943
2022-10-13T06:58:21.352Z,9.279946
2022-10-13T06:59:21.339Z,9.280065
2022-10-13T07:00:21.352Z,9.280139
2022-10-13T07:01:21.299Z,9.279974
2022-10-13T07:02:21.606Z,9.279981
2022-10-13T07:03:21.259Z,9.279982
2022-10-13T07:04:21.245Z,9.279952
2022-10-13T07:05:21.229Z,9.279844
2022-10-13T07:06:21.207Z,9.279899
2022-10-13T07:07:21.213Z,9.279925
2022-10-13T07:08:21.166Z,9.279933
2022-10-13T07:09:21.146Z,9.280238
2022-10-13T07:10:21.129Z,9.280030
2022-10-13T07:11:21.111Z,9.279900
2022-10-13T07:12:21.537Z,9.279944
2022-10-13T07:14:21.060Z,9.280005
2022-10-13T07:15:21.035Z,9.279920
2022-10-13T07:16:21.019Z,9.279959
2022-10-13T07:17:21.300Z,9.279958
2022-10-13T07:18:20.981Z,9.280002
2022-10-13T07:19:20.963Z,9.280024
2022-10-13T07:20:20.956Z,9.280214
2022-10-13T07:21:20.930Z,9.280164
2022-10-13T07:22:20.946Z,9.280136
2022-10-13T07:23:20.889Z,9.280007
2022-10-13T07:24:20.866Z,9.280165
2022-10-13T07:25:20.941Z,9.279981
2022-10-13T07:26:20.837Z,9.279960
2022-10-13T07:27:21.113Z,9.279754
2022-10-13T07:28:20.820Z,9.279818
2022-10-13T07:29:20.775Z,9.279796
2022-10-13T07:30:20.760Z,9.279902
2022-10-13T07:31:20.737Z,9.279805
2022-10-13T07:32:20.744Z,9.279865
2022-10-13T07:33:20.697Z,9.279858
2022-10-13T07:34:20.680Z,9.279846
2022-10-13T07:35:20.660Z,9.279773
2022-10-13T07:36:20.644Z,9.279849
2022-10-13T07:37:21.069Z,9.279904
2022-10-13T07:38:20.606Z,9.279874
2022-10-13T07:39:20.587Z,9.279745
2022-10-13T07:40:20.570Z,9.279768
2022-10-13T07:41:20.552Z,9.279930
2022-10-13T07:42:20.557Z,9.279973
2022-10-13T07:43:20.514Z,9.279926
2022-10-13T07:44:20.494Z,9.279901
2022-10-13T07:45:20.479Z,9.279889
2022-10-13T07:46:20.459Z,9.279852
2022-10-13T07:47:20.874Z,9.279818
2022-10-13T07:48:20.418Z,9.279802
2022-10-13T07:49:20.402Z,9.279836
2022-10-13T07:50:20.471Z,9.279935
2022-10-13T07:51:20.366Z,9.279954
2022-10-13T07:52:20.673Z,9.279881
2022-10-13T07:53:20.331Z,9.279833
2022-10-13T07:54:23.756Z,9.279816
2022-10-13T07:55:22.292Z,9.279803
2022-10-13T07:56:20.274Z,9.279832
2022-10-13T07:57:20.259Z,9.279833
2022-10-13T07:58:20.244Z,9.279931
2022-10-13T07:59:20.244Z,9.279816
2022-10-13T08:00:20.269Z,9.279733
2022-10-13T08:01:20.218Z,9.279655
2022-10-13T08:02:20.538Z,9.279751
2022-10-13T08:03:20.179Z,9.279830
2022-10-13T08:04:20.153Z,9.279826
2022-10-13T08:05:20.106Z,9.279825
2022-10-13T08:06:20.085Z,9.279935
2022-10-13T08:07:20.423Z,9.279817
2022-10-13T08:08:20.045Z,9.279802
2022-10-13T08:09:20.055Z,9.279825
2022-10-13T08:10:20.090Z,9.279993
2022-10-13T08:11:20.019Z,9.279949
2022-10-13T08:12:20.288Z,9.279943
2022-10-13T08:13:19.950Z,9.280000
2022-10-13T08:14:19.934Z,9.279963
2022-10-13T08:15:19.914Z,9.279931
2022-10-13T08:16:19.915Z,9.279904
2022-10-13T08:17:20.132Z,9.279941
2022-10-13T08:18:19.848Z,9.279963
2022-10-13T08:19:19.827Z,9.279950
2022-10-13T08:20:19.805Z,9.279985
2022-10-13T08:22:24.731Z,9.279955
2022-10-13T08:23:20.753Z,9.279985
2022-10-13T08:24:19.733Z,9.279995
2022-10-13T08:25:19.706Z,9.279967
2022-10-13T08:26:19.713Z,9.279948
2022-10-13T08:27:20.073Z,9.279912
2022-10-13T08:28:19.753Z,9.279892
2022-10-13T08:29:22.630Z,9.279943
2022-10-13T08:30:20.857Z,9.279962
2022-10-13T08:31:19.863Z,9.279914
2022-10-13T08:32:19.756Z,9.279952
2022-10-13T08:33:19.553Z,9.279989
2022-10-13T08:34:19.531Z,9.279964
2022-10-13T08:35:19.523Z,9.279962
2022-10-13T08:36:19.516Z,9.280046
2022-10-13T08:37:19.464Z,9.280096
2022-10-13T08:38:19.447Z,9.280004
2022-10-13T08:39:19.425Z,9.279977
2022-10-13T08:40:19.408Z,9.280006
2022-10-13T08:41:19.409Z,9.279960
2022-10-13T08:42:19.659Z,9.279988
2022-10-13T08:43:19.344Z,9.279984
2022-10-13T08:45:40.505Z,9.279932
2022-10-13T08:46:21.426Z,9.279932
2022-10-13T08:47:19.263Z,9.279970
2022-10-13T08:48:19.379Z,9.279954
2022-10-13T08:49:19.219Z,9.279905
2022-10-13T08:50:19.202Z,9.279949
2022-10-13T08:51:19.205Z,9.279992
2022-10-13T08:52:19.465Z,9.279960
2022-10-13T08:53:19.132Z,9.279952
2022-10-13T08:54:19.113Z,9.279985
2022-10-13T08:55:19.098Z,9.279977
2022-10-13T08:56:19.072Z,9.280002
2022-10-13T08:57:19.398Z,9.279914
2022-10-13T08:58:19.022Z,9.279893
2022-10-13T08:59:18.991Z,9.280002
2022-10-13T09:00:18.973Z,9.279943
2022-10-13T09:01:18.985Z,9.279966
2022-10-13T09:02:18.964Z,9.279977
2022-10-13T09:03:18.904Z,9.279968
2022-10-13T09:04:18.879Z,9.280049
2022-10-13T09:05:18.862Z,9.280078
2022-10-13T09:06:18.835Z,9.280048
2022-10-13T09:07:19.135Z,9.280111
2022-10-13T09:08:18.790Z,9.280034
2022-10-13T09:09:18.795Z,9.280072
2022-10-13T09:10:18.779Z,9.280071
2022-10-13T09:11:18.729Z,9.280046
2022-10-13T09:12:18.954Z,9.280001
2022-10-13T09:13:18.686Z,9.280022
2022-10-13T09:14:18.693Z,9.279987
2022-10-13T09:15:18.649Z,9.279940
2022-10-13T09:16:18.618Z,9.279895
2022-10-13T09:17:18.619Z,9.279819
2022-10-13T09:18:18.587Z,9.279933
2022-10-13T09:19:18.596Z,9.279965
2022-10-13T09:20:18.548Z,9.280020
2022-10-13T09:21:18.531Z,9.279983
2022-10-13T09:22:18.738Z,9.279910
2022-10-13T09:23:18.489Z,9.279951
2022-10-13T09:24:18.499Z,9.280030
2022-10-13T09:25:18.454Z,9.279919
2022-10-13T09:26:18.449Z,9.279915
2022-10-13T09:27:18.411Z,9.279941
2022-10-13T09:28:18.453Z,9.279934
2022-10-13T09:29:18.402Z,9.279960
2022-10-13T09:30:18.352Z,9.280036
2022-10-13T09:31:18.336Z,9.279954
2022-10-13T09:32:18.638Z,9.279882
2022-10-13T09:33:18.298Z,9.280047
2022-10-13T09:34:18.310Z,9.280062
2022-10-13T09:35:18.264Z,9.279936
2022-10-13T09:36:18.240Z,9.280053
2022-10-13T09:37:18.220Z,9.280053
2022-10-13T09:38:18.200Z,9.280001
2022-10-13T09:39:18.210Z,9.279956
2022-10-13T09:40:18.165Z,9.279935
2022-10-13T09:41:18.144Z,9.279916
2022-10-13T09:42:18.490Z,9.279969
2022-10-13T09:43:18.111Z,9.279975
2022-10-13T09:44:18.114Z,9.279913
2022-10-13T09:45:18.071Z,9.279862
2022-10-13T09:46:18.048Z,9.279885
2022-10-13T09:47:18.062Z,9.279898
2022-10-13T09:48:18.011Z,9.279911
2022-10-13T09:49:18.024Z,9.279834
2022-10-13T09:50:17.975Z,9.279887
2022-10-13T09:51:17.961Z,9.279903
2022-10-13T09:52:18.241Z,9.279785
2022-10-13T09:53:17.916Z,9.279659
2022-10-13T09:54:17.925Z,9.279869
2022-10-13T09:55:17.879Z,9.279838
2022-10-13T09:56:17.860Z,9.279827
2022-10-13T09:57:17.842Z,9.279854
2022-10-13T09:58:17.826Z,9.279839
2022-10-13T09:59:17.830Z,9.279781
2022-10-13T10:00:17.791Z,9.279780
2022-10-13T10:01:17.763Z,9.279887
2022-10-13T10:02:19.473Z,9.279920
2022-10-13T10:03:17.726Z,9.279907
2022-10-13T10:04:17.794Z,9.279867
2022-10-13T10:05:17.687Z,9.279903
2022-10-13T10:06:17.668Z,9.279932
2022-10-13T10:07:17.939Z,9.279931
2022-10-13T10:08:17.635Z,9.279906
2022-10-13T10:09:17.638Z,9.279870
2022-10-13T10:10:17.593Z,9.279971
2022-10-13T10:11:17.573Z,9.279963
2022-10-13T10:12:17.560Z,9.279902
2022-10-13T10:13:17.538Z,9.279961
2022-10-13T10:14:17.546Z,9.280041
2022-10-13T10:15:17.519Z,9.279997
2022-10-13T10:16:17.482Z,9.279955
2022-10-13T10:17:17.845Z,9.279704
2022-10-13T10:18:17.440Z,9.279891
2022-10-13T10:19:17.443Z,9.279965
2022-10-13T10:20:17.397Z,9.279925
2022-10-13T10:21:17.389Z,9.279877
2022-10-13T10:22:17.361Z,9.279975
2022-10-13T10:23:17.345Z,9.279976
2022-10-13T10:24:17.354Z,9.280093
2022-10-13T10:25:17.307Z,9.280155
2022-10-13T10:26:22.225Z,9.280012
2022-10-13T10:28:17.333Z,9.279963
2022-10-13T10:29:17.259Z,9.279907
2022-10-13T10:30:17.208Z,9.280015
2022-10-13T10:31:17.196Z,9.279873
2022-10-13T10:32:17.382Z,9.279938
2022-10-13T10:33:17.148Z,9.279881
2022-10-13T10:34:17.154Z,9.280065
2022-10-13T10:35:17.105Z,9.280055
2022-10-13T10:36:17.126Z,9.280013
2022-10-13T10:37:21.104Z,9.279935
2022-10-13T10:38:19.050Z,9.279902
2022-10-13T10:39:17.058Z,9.280021
2022-10-13T10:40:17.036Z,9.280057
2022-10-13T10:41:16.992Z,9.279939
2022-10-13T10:42:17.172Z,9.279963
2022-10-13T10:43:16.946Z,9.280018
2022-10-13T10:44:16.952Z,9.279968
2022-10-13T10:45:16.911Z,9.280043
2022-10-13T10:46:16.888Z,9.279893
2022-10-13T10:47:19.693Z,9.279875
2022-10-13T10:48:17.848Z,9.280052
2022-10-13T10:49:16.854Z,9.280024
2022-10-13T10:50:16.842Z,9.280036
2022-10-13T10:51:16.785Z,9.280003
2022-10-13T10:52:16.764Z,9.280005
2022-10-13T10:53:16.747Z,9.280048
2022-10-13T10:54:16.776Z,9.280047
2022-10-13T10:55:16.700Z,9.280092
2022-10-13T10:56:16.684Z,9.280027
2022-10-13T10:57:16.824Z,9.279959
2022-10-13T10:58:16.634Z,9.279857
2022-10-13T10:59:16.648Z,9.279962
2022-10-13T11:00:16.730Z,9.279910
2022-10-13T11:01:16.605Z,9.279974
2022-10-13T11:02:16.578Z,9.280045
2022-10-13T11:03:16.529Z,9.280010
2022-10-13T11:04:16.534Z,9.279994
2022-10-13T11:05:16.482Z,9.279994
2022-10-13T11:06:16.464Z,9.280015
2022-10-13T11:07:16.441Z,9.280002
2022-10-13T11:08:16.419Z,9.279959
2022-10-13T11:09:17.428Z,9.280008
2022-10-13T11:10:16.380Z,9.280126
2022-10-13T11:11:16.355Z,9.279933
2022-10-13T11:12:16.340Z,9.280004
2022-10-13T11:13:16.312Z,9.279902
2022-10-13T11:14:16.321Z,9.279964
2022-10-13T11:15:16.315Z,9.280067
2022-10-13T11:16:16.250Z,9.280117
2022-10-13T11:17:16.227Z,9.280100
2022-10-13T11:18:19.778Z,9.280120
2022-10-13T11:19:18.212Z,9.280003
2022-10-13T11:20:16.164Z,9.280080
2022-10-13T11:21:16.142Z,9.280081
2022-10-13T11:22:16.123Z,9.280084
2022-10-13T11:23:16.104Z,9.280011
2022-10-13T11:24:16.107Z,9.279953
2022-10-13T11:25:16.058Z,9.280001
2022-10-13T11:26:16.044Z,9.280001
2022-10-13T11:27:16.020Z,9.280078
2022-10-13T11:28:16.055Z,9.279991
2022-10-13T11:29:16.006Z,9.279984
2022-10-13T11:30:15.978Z,9.280005
2022-10-13T11:31:15.938Z,9.280018
2022-10-13T11:32:15.915Z,9.280041
2022-10-13T11:33:15.890Z,9.280014
2022-10-13T11:34:15.904Z,9.279929
2022-10-13T11:35:15.854Z,9.279979
2022-10-13T11:36:15.827Z,9.280021
2022-10-13T11:37:15.807Z,9.280042
2022-10-13T11:38:17.977Z,9.279958
2022-10-13T11:39:16.847Z,9.279991
2022-10-13T11:40:15.744Z,9.280008
2022-10-13T11:41:15.722Z,9.279992
2022-10-13T11:42:15.752Z,9.279973
2022-10-13T11:43:15.684Z,9.279997
2022-10-13T11:44:15.742Z,9.280021
2022-10-13T11:45:15.645Z,9.280043
2022-10-13T11:46:15.621Z,9.280044
2022-10-13T11:47:15.604Z,9.279962
2022-10-13T11:48:15.596Z,9.279943